Time;durP1;ratioP1;P1;durP2;ratioP2;P2;SDS_P1;SDS_P2;PMS_P1;PMS_P2;Temp;Humidity;BMP_temperature;BMP_pressure;BME280_temperature;BME280_humidity;BME280_pressure;Samples;Min_cycle;Max_cycle;Signal;HPM_P1;HPM_P2
2023/08/02 00:00:04;;;;;;;;;;;;;;;;;;2082724;28;19910;-83
2023/08/02 00:01:25;;;;;;;;;;;;;;;;;;2082572;28;19913;-79
2023/08/02 00:02:46;;;;;;;;;;;;;;;;;;2077675;28;19917;-83
2023/08/02 00:04:06;;;;;;;;;;;;;;;;;;2080997;28;19924;-83
2023/08/02 00:05:27;;;;;;;;;;;;;;;;;;2082139;28;19932;-83
2023/08/02 00:06:48;;;;;;;;;;;;;;;;;;2082965;28;19909;-80
2023/08/02 00:08:08;;;;;;;;;;;;;;;;;;2086846;28;19921;-82
2023/08/02 00:09:29;;;;;;;;;;;;;;;;;;2090473;28;19909;-83
2023/08/02 00:10:50;;;;;;;;;;;;;;;;;;2080718;28;20276;-80
2023/08/02 00:12:10;;;;;;;;;;;;;;;;;;2070851;28;19928;-80
2023/08/02 00:13:31;;;;;;;;;;;;;;;;;;2080320;28;19920;-81
2023/08/02 00:14:52;;;;;;;;;;;;;;;;;;2073688;28;20328;-81
2023/08/02 00:16:14;;;;;;;;;;;;;;;;;;2072065;28;19909;-84
2023/08/02 00:17:34;;;;;;;;;;;;;;;;;;2071598;28;19951;-82
2023/08/02 00:18:55;;;;;;;;;;;;;;;;;;2072486;28;19909;-81
2023/08/02 00:20:16;;;;;;;;;;;;;;;;;;2072859;28;19913;-82
2023/08/02 00:21:37;;;;;;;;;;;;;;;;;;2087952;28;19913;-81
2023/08/02 00:22:57;;;;;;;;;;;;;;;;;;2090721;28;19909;-83
2023/08/02 00:24:18;;;;;;;;;;;;;;;;;;2092108;28;19908;-81
2023/08/02 00:25:39;;;;;;;;;;;;;;;;;;2082741;28;19925;-83
2023/08/02 00:26:59;;;;;;;;;;;;;;;;;;2089599;28;20305;-83
2023/08/02 00:28:20;;;;;;;;;;;;;;;;;;2081988;28;19913;-83
2023/08/02 00:29:41;;;;;;;;;;;;;;;;;;2083730;28;19915;-82
2023/08/02 00:31:01;;;;;;;;;;;;;;;;;;2090380;28;19916;-83
2023/08/02 00:32:22;;;;;;;;;;;;;;;;;;2083147;28;19932;-82
2023/08/02 00:33:43;;;;;;;;;;;;;;;;;;2083705;28;20365;-82
2023/08/02 00:35:04;;;;;;;;;;;;;;;;;;2082760;28;19932;-83
2023/08/02 00:36:24;;;;;;;;;;;;;;;;;;2083912;28;19909;-84
2023/08/02 00:37:45;;;;;;;;;;;;;;;;;;2077915;28;19910;-83
2023/08/02 00:39:07;;;;;;;;;;;;;;;;;;2096236;28;19914;-84
2023/08/02 00:40:27;;;;;;;;;;;;;;;;;;2090209;28;20214;-84
2023/08/02 00:41:48;;;;;;;;;;;;;;;;;;2087396;28;19964;-82
2023/08/02 00:43:09;;;;;;;;;;;;;;;;;;2086677;28;19913;-82
2023/08/02 00:44:29;;;;;;;;;;;;;;;;;;2097078;28;20375;-82
2023/08/02 00:45:50;;;;;;;;;;;;;;;;;;2086260;28;19962;-82
2023/08/02 00:47:11;;;;;;;;;;;;;;;;;;2078991;28;19909;-80
2023/08/02 00:48:31;;;;;;;;;;;;;;;;;;2086381;28;19916;-83
2023/08/02 00:49:52;;;;;;;;;;;;;;;;;;2082305;28;20387;-80
2023/08/02 00:51:15;;;;;;;;;;;;;;;;;;2087125;28;19909;-83
2023/08/02 00:52:36;;;;;;;;;;;;;;;;;;2096890;28;19951;-83
2023/08/02 00:53:56;;;;;;;;;;;;;;;;;;2089248;28;19958;-82
2023/08/02 00:55:17;;;;;;;;;;;;;;;;;;2088203;28;19909;-83
2023/08/02 00:56:38;;;;;;;;;;;;;;;;;;2088881;28;19916;-82
2023/08/02 00:57:58;;;;;;;;;;;;;;;;;;2082192;28;19909;-81
2023/08/02 00:59:19;;;;;;;;;;;;;;;;;;2088380;28;19917;-82
2023/08/02 01:00:40;;;;;;;;;;;;;;;;;;2090229;28;19909;-83
2023/08/02 01:02:01;;;;;;;;;;;;;;;;;;2086051;28;19978;-84
2023/08/02 01:03:22;;;;;;;;;;;;;;;;;;2088394;28;19913;-83
2023/08/02 01:04:42;;;;;;;;;;;;;;;;;;2092327;28;19909;-84
2023/08/02 01:06:03;;;;;;;;;;;;;;;;;;2091156;28;19909;-84
2023/08/02 01:07:24;;;;;;;;;;;;;;;;;;2090649;28;19955;-83
2023/08/02 01:08:44;;;;;;;;;;;;;;;;;;2087951;28;19924;-82
2023/08/02 01:10:05;;;;;;;;;;;;;;;;;;2087745;28;20344;-84
2023/08/02 01:11:26;;;;;;;;;;;;;;;;;;2088426;28;20358;-81
2023/08/02 01:12:47;;;;;;;;;;;;;;;;;;2090910;28;19917;-83
2023/08/02 01:14:07;;;;;;;;;;;;;;;;;;2091321;28;19920;-82
2023/08/02 01:15:28;;;;;;;;;;;;;;;;;;2086358;28;19916;-84
2023/08/02 01:16:49;;;;;;;;;;;;;;;;;;2080189;28;19916;-79
2023/08/02 01:18:10;;;;;;;;;;;;;;;;;;2087907;28;19943;-82
2023/08/02 01:19:31;;;;;;;;;;;;;;;;;;2081970;28;19917;-82
2023/08/02 01:20:52;;;;;;;;;;;;;;;;;;2080462;28;20284;-83
2023/08/02 01:22:13;;;;;;;;;;;;;;;;;;2086218;28;19917;-83
2023/08/02 01:23:33;;;;;;;;;;;;;;;;;;2081006;28;19980;-83
2023/08/02 01:24:56;;;;;;;;;;;;;;;;;;2082737;28;19930;-83
2023/08/02 01:26:16;;;;;;;;;;;;;;;;;;2082063;28;19909;-81
2023/08/02 01:27:37;;;;;;;;;;;;;;;;;;2082870;28;20419;-81
2023/08/02 01:28:58;;;;;;;;;;;;;;;;;;2088257;28;19920;-81
2023/08/02 01:30:18;;;;;;;;;;;;;;;;;;2091679;28;20363;-84
2023/08/02 01:31:39;;;;;;;;;;;;;;;;;;2076040;28;19910;-83
2023/08/02 01:33:00;;;;;;;;;;;;;;;;;;2071647;28;20123;-83
2023/08/02 01:34:20;;;;;;;;;;;;;;;;;;2080344;28;19931;-83
2023/08/02 01:35:41;;;;;;;;;;;;;;;;;;2074555;28;19921;-82
2023/08/02 01:37:02;;;;;;;;;;;;;;;;;;2072301;28;19913;-83
2023/08/02 01:38:22;;;;;;;;;;;;;;;;;;2072066;28;20277;-81
2023/08/02 01:39:43;;;;;;;;;;;;;;;;;;2095423;28;19908;-82
2023/08/02 01:41:04;;;;;;;;;;;;;;;;;;2089034;28;19913;-82
2023/08/02 01:42:25;;;;;;;;;;;;;;;;;;2091166;28;19936;-84
2023/08/02 01:43:45;;;;;;;;;;;;;;;;;;2081367;28;19909;-82
2023/08/02 01:45:06;;;;;;;;;;;;;;;;;;2083430;28;19920;-84
2023/08/02 01:46:27;;;;;;;;;;;;;;;;;;2087374;28;19916;-82
2023/08/02 01:47:48;;;;;;;;;;;;;;;;;;2083042;28;19917;-81
2023/08/02 01:49:09;;;;;;;;;;;;;;;;;;2083060;28;19970;-81
2023/08/02 01:50:30;;;;;;;;;;;;;;;;;;2087502;28;19928;-83
2023/08/02 01:51:51;;;;;;;;;;;;;;;;;;2080677;28;19924;-81
2023/08/02 01:53:11;;;;;;;;;;;;;;;;;;2081573;28;20339;-81
2023/08/02 01:54:32;;;;;;;;;;;;;;;;;;2087035;28;19913;-83
2023/08/02 01:55:53;;;;;;;;;;;;;;;;;;2089672;28;19916;-83
2023/08/02 01:57:13;;;;;;;;;;;;;;;;;;2087977;28;20580;-83
2023/08/02 01:58:34;;;;;;;;;;;;;;;;;;2078072;28;19913;-82
2023/08/02 01:59:55;;;;;;;;;;;;;;;;;;2087141;28;20462;-84
2023/08/02 02:01:15;;;;;;;;;;;;;;;;;;2081806;28;19942;-83
2023/08/02 02:02:36;;;;;;;;;;;;;;;;;;2086627;28;19928;-82
2023/08/02 02:03:57;;;;;;;;;;;;;;;;;;2081947;28;19909;-82
2023/08/02 02:05:17;;;;;;;;;;;;;;;;;;2088501;28;19913;-83
2023/08/02 02:06:38;;;;;;;;;;;;;;;;;;2082126;28;19916;-83
2023/08/02 02:07:59;;;;;;;;;;;;;;;;;;2089207;28;19920;-83
2023/08/02 02:09:20;;;;;;;;;;;;;;;;;;2082264;28;19976;-83
2023/08/02 02:10:40;;;;;;;;;;;;;;;;;;2088801;28;20304;-83
2023/08/02 02:12:01;;;;;;;;;;;;;;;;;;2081990;28;19989;-84
2023/08/02 02:13:22;;;;;;;;;;;;;;;;;;2089334;28;19916;-83
2023/08/02 02:14:42;;;;;;;;;;;;;;;;;;2081046;28;20297;-83
2023/08/02 02:16:03;;;;;;;;;;;;;;;;;;2081116;28;19968;-83
2023/08/02 02:17:24;;;;;;;;;;;;;;;;;;2086851;28;20360;-83
2023/08/02 02:18:44;;;;;;;;;;;;;;;;;;2085147;28;19920;-83
2023/08/02 02:20:05;;;;;;;;;;;;;;;;;;2094723;28;19908;-80
2023/08/02 02:21:26;;;;;;;;;;;;;;;;;;2082085;28;20390;-81
2023/08/02 02:22:47;;;;;;;;;;;;;;;;;;2087750;28;19992;-82
2023/08/02 02:24:07;;;;;;;;;;;;;;;;;;2084200;28;19917;-83
2023/08/02 02:25:28;;;;;;;;;;;;;;;;;;2079753;28;19932;-83
2023/08/02 02:26:49;;;;;;;;;;;;;;;;;;2090564;28;19909;-82
2023/08/02 02:28:11;;;;;;;;;;;;;;;;;;2082938;28;19936;-83
2023/08/02 02:29:32;;;;;;;;;;;;;;;;;;2083752;28;19912;-84
2023/08/02 02:30:53;;;;;;;;;;;;;;;;;;2083564;28;19913;-84
2023/08/02 02:32:14;;;;;;;;;;;;;;;;;;2075068;28;19910;-82
2023/08/02 02:33:34;;;;;;;;;;;;;;;;;;2079655;28;20289;-84
2023/08/02 02:34:55;;;;;;;;;;;;;;;;;;2074473;28;19909;-83
2023/08/02 02:36:16;;;;;;;;;;;;;;;;;;2071824;28;19933;-83
2023/08/02 02:37:36;;;;;;;;;;;;;;;;;;2081156;28;19913;-82
2023/08/02 02:38:57;;;;;;;;;;;;;;;;;;2085447;28;19909;-82
2023/08/02 02:40:18;;;;;;;;;;;;;;;;;;2087234;28;19941;-83
2023/08/02 02:41:38;;;;;;;;;;;;;;;;;;2089303;28;19952;-82
2023/08/02 02:42:59;;;;;;;;;;;;;;;;;;2086909;28;19917;-84
2023/08/02 02:44:20;;;;;;;;;;;;;;;;;;2088987;28;20268;-83
2023/08/02 02:45:40;;;;;;;;;;;;;;;;;;2087891;28;19920;-83
2023/08/02 02:47:01;;;;;;;;;;;;;;;;;;2084079;28;19909;-84
2023/08/02 02:48:22;;;;;;;;;;;;;;;;;;2081282;28;20292;-82
2023/08/02 02:49:43;;;;;;;;;;;;;;;;;;2080845;28;19940;-84
2023/08/02 02:51:03;;;;;;;;;;;;;;;;;;2091995;28;19916;-84
2023/08/02 02:52:24;;;;;;;;;;;;;;;;;;2092348;28;19931;-84
2023/08/02 02:53:45;;;;;;;;;;;;;;;;;;2082408;28;19917;-83
2023/08/02 02:55:05;;;;;;;;;;;;;;;;;;2081463;28;19909;-82
2023/08/02 02:56:26;;;;;;;;;;;;;;;;;;2087707;28;19909;-83
2023/08/02 02:57:47;;;;;;;;;;;;;;;;;;2083792;28;19913;-82
2023/08/02 02:59:08;;;;;;;;;;;;;;;;;;2087989;28;19913;-83
2023/08/02 03:00:31;;;;;;;;;;;;;;;;;;2083911;28;19909;-83
2023/08/02 03:01:51;;;;;;;;;;;;;;;;;;2089008;28;19920;-83
2023/08/02 03:03:12;;;;;;;;;;;;;;;;;;2090580;28;20038;-83
2023/08/02 03:04:33;;;;;;;;;;;;;;;;;;2083288;28;19924;-82
2023/08/02 03:05:56;;;;;;;;;;;;;;;;;;2088013;28;19909;-82
2023/08/02 03:07:17;;;;;;;;;;;;;;;;;;2089704;28;19916;-83
2023/08/02 03:08:38;;;;;;;;;;;;;;;;;;2090698;28;19940;-82
2023/08/02 03:09:58;;;;;;;;;;;;;;;;;;2074062;28;19925;-83
2023/08/02 03:11:19;;;;;;;;;;;;;;;;;;2081301;28;19910;-80
2023/08/02 03:12:40;;;;;;;;;;;;;;;;;;2076161;28;20276;-82
2023/08/02 03:14:01;;;;;;;;;;;;;;;;;;2084789;28;19913;-83
2023/08/02 03:15:21;;;;;;;;;;;;;;;;;;2082444;28;19916;-84
2023/08/02 03:16:44;;;;;;;;;;;;;;;;;;2077706;28;19940;-84
2023/08/02 03:18:05;;;;;;;;;;;;;;;;;;2080817;28;19909;-84
2023/08/02 03:19:26;;;;;;;;;;;;;;;;;;2085236;28;19920;-83
2023/08/02 03:20:47;;;;;;;;;;;;;;;;;;2086545;28;19920;-84
2023/08/02 03:22:07;;;;;;;;;;;;;;;;;;2084941;28;19913;-84
2023/08/02 03:23:28;;;;;;;;;;;;;;;;;;2082979;28;19921;-84
2023/08/02 03:24:49;;;;;;;;;;;;;;;;;;2079307;28;19910;-85
2023/08/02 03:26:09;;;;;;;;;;;;;;;;;;2080703;28;19914;-84
2023/08/02 03:27:30;;;;;;;;;;;;;;;;;;2080242;28;19913;-84
2023/08/02 03:28:51;;;;;;;;;;;;;;;;;;2080876;28;19913;-83
2023/08/02 03:30:11;;;;;;;;;;;;;;;;;;2080386;28;19980;-84
2023/08/02 03:31:32;;;;;;;;;;;;;;;;;;2080827;28;20364;-85
2023/08/02 03:32:53;;;;;;;;;;;;;;;;;;2082640;28;19913;-85
2023/08/02 03:34:14;;;;;;;;;;;;;;;;;;2076109;28;19910;-84
2023/08/02 03:35:34;;;;;;;;;;;;;;;;;;2079626;28;20043;-84
2023/08/02 03:36:55;;;;;;;;;;;;;;;;;;2075283;28;19917;-84
2023/08/02 03:38:16;;;;;;;;;;;;;;;;;;2072509;28;19948;-82
2023/08/02 03:39:37;;;;;;;;;;;;;;;;;;2088478;28;20368;-84
2023/08/02 03:40:57;;;;;;;;;;;;;;;;;;2088907;28;19913;-83
2023/08/02 03:42:18;;;;;;;;;;;;;;;;;;2097938;28;19924;-84
2023/08/02 03:43:39;;;;;;;;;;;;;;;;;;2089861;28;19924;-85
2023/08/02 03:44:59;;;;;;;;;;;;;;;;;;2084304;28;19921;-84
2023/08/02 03:46:20;;;;;;;;;;;;;;;;;;2088501;28;19916;-84
2023/08/02 03:47:41;;;;;;;;;;;;;;;;;;2080012;28;19909;-83
2023/08/02 03:49:01;;;;;;;;;;;;;;;;;;2078292;28;20321;-83
2023/08/02 03:50:22;;;;;;;;;;;;;;;;;;2089138;28;19932;-82
2023/08/02 03:51:43;;;;;;;;;;;;;;;;;;2091805;28;19917;-82
2023/08/02 03:53:04;;;;;;;;;;;;;;;;;;2090089;28;19913;-83
2023/08/02 03:54:24;;;;;;;;;;;;;;;;;;2092041;28;19916;-85
2023/08/02 03:55:45;;;;;;;;;;;;;;;;;;2088707;28;19928;-84
2023/08/02 03:57:07;;;;;;;;;;;;;;;;;;2096454;28;19909;-84
2023/08/02 03:58:27;;;;;;;;;;;;;;;;;;2090277;28;20408;-84
2023/08/02 03:59:48;;;;;;;;;;;;;;;;;;2093839;28;19897;-84
2023/08/02 04:01:09;;;;;;;;;;;;;;;;;;2090934;28;19908;-84
2023/08/02 04:02:29;;;;;;;;;;;;;;;;;;2093528;28;19939;-84
2023/08/02 04:03:50;;;;;;;;;;;;;;;;;;2090370;28;19970;-83
2023/08/02 04:05:11;;;;;;;;;;;;;;;;;;2084942;28;19913;-83
2023/08/02 04:06:32;;;;;;;;;;;;;;;;;;2081643;28;19913;-83
2023/08/02 04:07:53;;;;;;;;;;;;;;;;;;2081287;28;19921;-84
2023/08/02 04:09:13;;;;;;;;;;;;;;;;;;2073299;28;19925;-83
2023/08/02 04:10:34;;;;;;;;;;;;;;;;;;2073974;28;19909;-84
2023/08/02 04:11:55;;;;;;;;;;;;;;;;;;2080567;28;19935;-84
2023/08/02 04:13:15;;;;;;;;;;;;;;;;;;2074659;28;20443;-84
2023/08/02 04:14:36;;;;;;;;;;;;;;;;;;2072941;28;19909;-84
2023/08/02 04:15:57;;;;;;;;;;;;;;;;;;2081051;28;20305;-78
2023/08/02 04:17:17;;;;;;;;;;;;;;;;;;2074161;28;19925;-84
2023/08/02 04:18:38;;;;;;;;;;;;;;;;;;2072064;28;20250;-83
2023/08/02 04:19:59;;;;;;;;;;;;;;;;;;2072728;28;19921;-84
2023/08/02 04:21:20;;;;;;;;;;;;;;;;;;2079956;28;19915;-82
2023/08/02 04:22:40;;;;;;;;;;;;;;;;;;2090885;28;20257;-84
2023/08/02 04:24:01;;;;;;;;;;;;;;;;;;2089354;28;19921;-84
2023/08/02 04:25:22;;;;;;;;;;;;;;;;;;2083044;28;19916;-83
2023/08/02 04:26:42;;;;;;;;;;;;;;;;;;2087940;28;20288;-84
2023/08/02 04:28:03;;;;;;;;;;;;;;;;;;2089661;28;19909;-84
2023/08/02 04:29:24;;;;;;;;;;;;;;;;;;2082871;28;20407;-83
2023/08/02 04:30:44;;;;;;;;;;;;;;;;;;2088324;28;19909;-84
2023/08/02 04:32:05;;;;;;;;;;;;;;;;;;2083370;28;19909;-82
2023/08/02 04:33:26;;;;;;;;;;;;;;;;;;2073068;28;19921;-81
2023/08/02 04:34:47;;;;;;;;;;;;;;;;;;2072184;28;20227;-82
2023/08/02 04:36:07;;;;;;;;;;;;;;;;;;2071478;28;19932;-83
2023/08/02 04:37:28;;;;;;;;;;;;;;;;;;2081277;28;19916;-84
2023/08/02 04:38:49;;;;;;;;;;;;;;;;;;2082489;28;19909;-84
2023/08/02 04:40:09;;;;;;;;;;;;;;;;;;2088412;28;20518;-84
2023/08/02 04:41:30;;;;;;;;;;;;;;;;;;2088071;28;19920;-85
2023/08/02 04:42:51;;;;;;;;;;;;;;;;;;2097135;28;19916;-82
2023/08/02 04:44:12;;;;;;;;;;;;;;;;;;2087882;28;19944;-84
2023/08/02 04:45:32;;;;;;;;;;;;;;;;;;2086396;28;19921;-84
2023/08/02 04:46:53;;;;;;;;;;;;;;;;;;2087492;28;19916;-84
2023/08/02 04:48:14;;;;;;;;;;;;;;;;;;2085822;28;20379;-83
2023/08/02 04:49:34;;;;;;;;;;;;;;;;;;2081950;28;19917;-85
2023/08/02 04:50:55;;;;;;;;;;;;;;;;;;2075132;28;20406;-84
2023/08/02 04:52:16;;;;;;;;;;;;;;;;;;2071248;28;20379;-84
2023/08/02 04:53:36;;;;;;;;;;;;;;;;;;2080690;28;19920;-83
2023/08/02 04:54:57;;;;;;;;;;;;;;;;;;2073175;28;19917;-83
2023/08/02 04:56:18;;;;;;;;;;;;;;;;;;2076455;28;19909;-83
2023/08/02 04:57:38;;;;;;;;;;;;;;;;;;2074254;28;19910;-83
2023/08/02 04:58:59;;;;;;;;;;;;;;;;;;2079136;28;19909;-84
2023/08/02 05:00:20;;;;;;;;;;;;;;;;;;2075772;28;19909;-83
2023/08/02 05:01:41;;;;;;;;;;;;;;;;;;2090038;28;19917;-81
2023/08/02 05:03:01;;;;;;;;;;;;;;;;;;2090768;28;19916;-84
2023/08/02 05:04:22;;;;;;;;;;;;;;;;;;2081711;28;20289;-81
2023/08/02 05:05:43;;;;;;;;;;;;;;;;;;2074217;28;19914;-84
2023/08/02 05:07:03;;;;;;;;;;;;;;;;;;2080175;28;19910;-83
2023/08/02 05:08:24;;;;;;;;;;;;;;;;;;2073366;28;19913;-83
2023/08/02 05:09:45;;;;;;;;;;;;;;;;;;2072037;28;20280;-83
2023/08/02 05:11:05;;;;;;;;;;;;;;;;;;2071211;28;19914;-84
2023/08/02 05:12:26;;;;;;;;;;;;;;;;;;2072518;28;20384;-84
2023/08/02 05:13:47;;;;;;;;;;;;;;;;;;2069695;28;19913;-84
2023/08/02 05:15:08;;;;;;;;;;;;;;;;;;2075054;28;20329;-80
2023/08/02 05:16:28;;;;;;;;;;;;;;;;;;2082021;28;19909;-80
2023/08/02 05:17:49;;;;;;;;;;;;;;;;;;2088154;28;19916;-83
2023/08/02 05:19:10;;;;;;;;;;;;;;;;;;2081221;28;19913;-83
2023/08/02 05:20:31;;;;;;;;;;;;;;;;;;2088893;28;19913;-84
2023/08/02 05:21:51;;;;;;;;;;;;;;;;;;2078938;28;19920;-83
2023/08/02 05:23:12;;;;;;;;;;;;;;;;;;2080499;28;19917;-83
2023/08/02 05:24:33;;;;;;;;;;;;;;;;;;2078398;28;20368;-83
2023/08/02 05:25:55;;;;;;;;;;;;;;;;;;2080229;28;20446;-83
2023/08/02 05:27:16;;;;;;;;;;;;;;;;;;2079430;28;19913;-82
2023/08/02 05:28:36;;;;;;;;;;;;;;;;;;2082477;28;19909;-80
2023/08/02 05:29:57;;;;;;;;;;;;;;;;;;2086230;28;20328;-80
2023/08/02 05:31:18;;;;;;;;;;;;;;;;;;2081764;28;19924;-79
2023/08/02 05:32:39;;;;;;;;;;;;;;;;;;2087180;28;19916;-78
2023/08/02 05:33:59;;;;;;;;;;;;;;;;;;2080549;28;19917;-79
2023/08/02 05:35:20;;;;;;;;;;;;;;;;;;2078441;28;19909;-78
2023/08/02 05:36:41;;;;;;;;;;;;;;;;;;2078574;28;20277;-78
2023/08/02 05:38:01;;;;;;;;;;;;;;;;;;2078425;28;19910;-79
2023/08/02 05:39:22;;;;;;;;;;;;;;;;;;2078366;28;19909;-77
2023/08/02 05:40:43;;;;;;;;;;;;;;;;;;2086540;28;19912;-78
2023/08/02 05:42:04;;;;;;;;;;;;;;;;;;2072929;28;19920;-78
2023/08/02 05:43:25;;;;;;;;;;;;;;;;;;2087837;28;20395;-79
2023/08/02 05:44:45;;;;;;;;;;;;;;;;;;2087668;28;19928;-77
2023/08/02 05:46:06;;;;;;;;;;;;;;;;;;2080626;28;20262;-78
2023/08/02 05:47:27;;;;;;;;;;;;;;;;;;2081583;28;19913;-79
2023/08/02 05:48:49;;;;;;;;;;;;;;;;;;2088121;28;19967;-78
2023/08/02 05:50:09;;;;;;;;;;;;;;;;;;2091716;28;19924;-78
2023/08/02 05:51:30;;;;;;;;;;;;;;;;;;2097901;28;19908;-77
2023/08/02 05:52:51;;;;;;;;;;;;;;;;;;2097035;28;19931;-77
2023/08/02 05:54:11;;;;;;;;;;;;;;;;;;2097167;28;19917;-78
2023/08/02 05:55:32;;;;;;;;;;;;;;;;;;2098707;28;20318;-77
2023/08/02 05:56:53;;;;;;;;;;;;;;;;;;2088591;28;19913;-77
2023/08/02 05:58:14;;;;;;;;;;;;;;;;;;2081426;28;19909;-77
2023/08/02 05:59:37;;;;;;;;;;;;;;;;;;2088605;28;19920;-77
2023/08/02 06:00:57;;;;;;;;;;;;;;;;;;2082097;28;19920;-77
2023/08/02 06:02:18;;;;;;;;;;;;;;;;;;2080389;28;20016;-77
2023/08/02 06:03:39;;;;;;;;;;;;;;;;;;2073278;28;20242;-76
2023/08/02 06:05:00;;;;;;;;;;;;;;;;;;2081531;28;19917;-76
2023/08/02 06:06:21;;;;;;;;;;;;;;;;;;2074441;28;19909;-78
2023/08/02 06:07:42;;;;;;;;;;;;;;;;;;2072314;28;19933;-77
2023/08/02 06:09:03;;;;;;;;;;;;;;;;;;2080757;28;19917;-77
2023/08/02 06:10:24;;;;;;;;;;;;;;;;;;2074630;28;20325;-77
2023/08/02 06:11:44;;;;;;;;;;;;;;;;;;2080704;28;20277;-77
2023/08/02 06:13:05;;;;;;;;;;;;;;;;;;2074212;28;19932;-76
2023/08/02 06:14:26;;;;;;;;;;;;;;;;;;2070783;28;20242;-76
2023/08/02 06:15:47;;;;;;;;;;;;;;;;;;2079498;28;19909;-76
2023/08/02 06:17:07;;;;;;;;;;;;;;;;;;2087791;28;19920;-76
2023/08/02 06:18:28;;;;;;;;;;;;;;;;;;2082191;28;19944;-76
2023/08/02 06:19:49;;;;;;;;;;;;;;;;;;2082289;28;19920;-76
2023/08/02 06:21:09;;;;;;;;;;;;;;;;;;2082810;28;19909;-76
2023/08/02 06:22:30;;;;;;;;;;;;;;;;;;2087614;28;20356;-76
2023/08/02 06:23:51;;;;;;;;;;;;;;;;;;2074524;28;20146;-76
2023/08/02 06:25:11;;;;;;;;;;;;;;;;;;2080690;28;19906;-76
2023/08/02 06:26:32;;;;;;;;;;;;;;;;;;2083299;28;19928;-75
2023/08/02 06:27:53;;;;;;;;;;;;;;;;;;2081632;28;19913;-76
2023/08/02 06:29:13;;;;;;;;;;;;;;;;;;2082633;28;20313;-75
2023/08/02 06:30:34;;;;;;;;;;;;;;;;;;2081499;28;19910;-75
2023/08/02 06:31:55;;;;;;;;;;;;;;;;;;2082783;28;19909;-76
2023/08/02 06:33:16;;;;;;;;;;;;;;;;;;2077631;28;19909;-75
2023/08/02 06:34:36;;;;;;;;;;;;;;;;;;2082592;28;19924;-76
2023/08/02 06:35:57;;;;;;;;;;;;;;;;;;2077690;28;20021;-75
2023/08/02 06:37:18;;;;;;;;;;;;;;;;;;2079798;28;19909;-76
2023/08/02 06:38:39;;;;;;;;;;;;;;;;;;2089296;28;19909;-76
2023/08/02 06:39:59;;;;;;;;;;;;;;;;;;2085978;28;19913;-75
2023/08/02 06:41:20;;;;;;;;;;;;;;;;;;2088333;28;19932;-75
2023/08/02 06:42:41;;;;;;;;;;;;;;;;;;2089262;28;20425;-76
2023/08/02 06:44:03;;;;;;;;;;;;;;;;;;2089315;28;19924;-75
2023/08/02 06:45:23;;;;;;;;;;;;;;;;;;2090756;28;19927;-76
2023/08/02 06:46:44;;;;;;;;;;;;;;;;;;2090029;28;20264;-76
2023/08/02 06:48:05;;;;;;;;;;;;;;;;;;2085266;28;19909;-75
2023/08/02 06:49:26;;;;;;;;;;;;;;;;;;2081660;28;20402;-75
2023/08/02 06:50:46;;;;;;;;;;;;;;;;;;2086863;28;19916;-75
2023/08/02 06:52:07;;;;;;;;;;;;;;;;;;2087366;28;19939;-75
2023/08/02 06:53:28;;;;;;;;;;;;;;;;;;2088752;28;19924;-76
2023/08/02 06:54:49;;;;;;;;;;;;;;;;;;2090436;28;19924;-75
2023/08/02 06:56:09;;;;;;;;;;;;;;;;;;2081717;28;20012;-76
2023/08/02 06:57:31;;;;;;;;;;;;;;;;;;2079134;28;19976;-75
2023/08/02 06:58:52;;;;;;;;;;;;;;;;;;2087886;28;20039;-75
2023/08/02 07:00:12;;;;;;;;;;;;;;;;;;2089630;28;19909;-75
2023/08/02 07:01:33;;;;;;;;;;;;;;;;;;2091765;28;19913;-75
2023/08/02 07:02:54;;;;;;;;;;;;;;;;;;2091286;28;19915;-75
2023/08/02 07:04:15;;;;;;;;;;;;;;;;;;2082402;28;19920;-75
2023/08/02 07:05:35;;;;;;;;;;;;;;;;;;2081350;28;20276;-75
2023/08/02 07:06:56;;;;;;;;;;;;;;;;;;2088996;28;19989;-74
2023/08/02 07:08:17;;;;;;;;;;;;;;;;;;2091258;28;19909;-75
2023/08/02 07:09:37;;;;;;;;;;;;;;;;;;2083120;28;19924;-75
2023/08/02 07:10:58;;;;;;;;;;;;;;;;;;2087706;28;19935;-75
2023/08/02 07:12:19;;;;;;;;;;;;;;;;;;2083096;28;19914;-75
2023/08/02 07:13:39;;;;;;;;;;;;;;;;;;2087489;28;19916;-75
2023/08/02 07:15:00;;;;;;;;;;;;;;;;;;2092237;28;19921;-75
2023/08/02 07:16:21;;;;;;;;;;;;;;;;;;2091196;28;19932;-75
2023/08/02 07:17:44;;;;;;;;;;;;;;;;;;2075486;28;20001;-76
2023/08/02 07:19:04;;;;;;;;;;;;;;;;;;2070670;28;20258;-76
2023/08/02 07:20:25;;;;;;;;;;;;;;;;;;2080713;28;19985;-76
2023/08/02 07:21:46;;;;;;;;;;;;;;;;;;2088064;28;19909;-75
2023/08/02 07:23:06;;;;;;;;;;;;;;;;;;2090771;28;19909;-75
2023/08/02 07:24:27;;;;;;;;;;;;;;;;;;2089232;28;20328;-75
2023/08/02 07:25:48;;;;;;;;;;;;;;;;;;2091049;28;19916;-75
2023/08/02 07:27:09;;;;;;;;;;;;;;;;;;2090126;28;20426;-75
2023/08/02 07:28:30;;;;;;;;;;;;;;;;;;2089085;28;19909;-75
2023/08/02 07:29:56;;;;;;;;;;;;;;;;;;2081961;28;20360;-75
2023/08/02 07:31:16;;;;;;;;;;;;;;;;;;2088249;28;19920;-75
2023/08/02 07:32:37;;;;;;;;;;;;;;;;;;2080706;28;20285;-75
2023/08/02 07:33:58;;;;;;;;;;;;;;;;;;2078872;28;19916;-75
2023/08/02 07:35:19;;;;;;;;;;;;;;;;;;2081301;28;19925;-76
2023/08/02 07:36:39;;;;;;;;;;;;;;;;;;2087672;28;19909;-76
2023/08/02 07:38:00;;;;;;;;;;;;;;;;;;2089499;28;19920;-76
2023/08/02 07:39:21;;;;;;;;;;;;;;;;;;2087247;28;19916;-75
2023/08/02 07:40:43;;;;;;;;;;;;;;;;;;2081887;28;19913;-76
2023/08/02 07:42:03;;;;;;;;;;;;;;;;;;2087982;28;19919;-75
2023/08/02 07:43:24;;;;;;;;;;;;;;;;;;2081234;28;19921;-75
2023/08/02 07:44:45;;;;;;;;;;;;;;;;;;2087001;28;19939;-76
2023/08/02 07:46:05;;;;;;;;;;;;;;;;;;2090351;28;19913;-76
2023/08/02 07:47:26;;;;;;;;;;;;;;;;;;2079846;28;20040;-76
2023/08/02 07:48:47;;;;;;;;;;;;;;;;;;2077719;28;19920;-75
2023/08/02 07:50:09;;;;;;;;;;;;;;;;;;2085537;28;20308;-75
2023/08/02 07:51:29;;;;;;;;;;;;;;;;;;2082413;28;20464;-74
2023/08/02 07:52:50;;;;;;;;;;;;;;;;;;2074892;28;19917;-75
2023/08/02 07:54:11;;;;;;;;;;;;;;;;;;2078286;28;19910;-75
2023/08/02 07:55:32;;;;;;;;;;;;;;;;;;2080867;28;19905;-75
2023/08/02 07:56:52;;;;;;;;;;;;;;;;;;2077689;28;19923;-75
2023/08/02 07:58:13;;;;;;;;;;;;;;;;;;2080218;28;19921;-75
2023/08/02 07:59:34;;;;;;;;;;;;;;;;;;2084653;28;19917;-74
2023/08/02 08:00:54;;;;;;;;;;;;;;;;;;2087975;28;19916;-74
2023/08/02 08:02:15;;;;;;;;;;;;;;;;;;2084455;28;20284;-75
2023/08/02 08:03:36;;;;;;;;;;;;;;;;;;2081109;28;19909;-75
2023/08/02 08:04:56;;;;;;;;;;;;;;;;;;2088569;28;20360;-74
2023/08/02 08:06:23;;;;;;;;;;;;;;;;;;2083274;28;19917;-75
2023/08/02 08:07:44;;;;;;;;;;;;;;;;;;2082093;28;19920;-74
2023/08/02 08:09:05;;;;;;;;;;;;;;;;;;2089783;28;19913;-75
2023/08/02 08:10:25;;;;;;;;;;;;;;;;;;2077982;28;20380;-75
2023/08/02 08:11:46;;;;;;;;;;;;;;;;;;2077493;28;19910;-74
2023/08/02 08:13:07;;;;;;;;;;;;;;;;;;2081387;28;19920;-74
2023/08/02 08:14:27;;;;;;;;;;;;;;;;;;2080630;28;19913;-74
2023/08/02 08:15:48;;;;;;;;;;;;;;;;;;2081223;28;19909;-75
2023/08/02 08:17:09;;;;;;;;;;;;;;;;;;2075964;28;19963;-74
2023/08/02 08:18:31;;;;;;;;;;;;;;;;;;2080052;28;19921;-75
2023/08/02 08:19:51;;;;;;;;;;;;;;;;;;2079371;28;19920;-74
2023/08/02 08:21:12;;;;;;;;;;;;;;;;;;2080489;28;19913;-74
2023/08/02 08:22:33;;;;;;;;;;;;;;;;;;2079111;28;20418;-75
2023/08/02 08:23:53;;;;;;;;;;;;;;;;;;2072476;28;20417;-74
2023/08/02 08:25:14;;;;;;;;;;;;;;;;;;2076189;28;19925;-74
2023/08/02 08:26:35;;;;;;;;;;;;;;;;;;2080439;28;19959;-75
2023/08/02 08:27:56;;;;;;;;;;;;;;;;;;2076862;28;20434;-75
2023/08/02 08:29:16;;;;;;;;;;;;;;;;;;2077513;28;19917;-74
2023/08/02 08:30:37;;;;;;;;;;;;;;;;;;2076869;28;20248;-75
2023/08/02 08:31:58;;;;;;;;;;;;;;;;;;2079940;28;19914;-74
2023/08/02 08:33:18;;;;;;;;;;;;;;;;;;2068991;28;20372;-74
2023/08/02 08:34:39;;;;;;;;;;;;;;;;;;2072330;28;19928;-73
2023/08/02 08:36:00;;;;;;;;;;;;;;;;;;2078668;28;19916;-74
2023/08/02 08:37:21;;;;;;;;;;;;;;;;;;2079346;28;19917;-74
2023/08/02 08:38:42;;;;;;;;;;;;;;;;;;2081345;28;19913;-74
2023/08/02 08:40:03;;;;;;;;;;;;;;;;;;2078590;28;19917;-74
2023/08/02 08:41:24;;;;;;;;;;;;;;;;;;2077895;28;19917;-74
2023/08/02 08:42:44;;;;;;;;;;;;;;;;;;2079678;28;19917;-74
2023/08/02 08:44:05;;;;;;;;;;;;;;;;;;2077623;28;19909;-75
2023/08/02 08:45:26;;;;;;;;;;;;;;;;;;2077153;28;20288;-74
2023/08/02 08:46:46;;;;;;;;;;;;;;;;;;2079284;28;19916;-75
2023/08/02 08:48:08;;;;;;;;;;;;;;;;;;2075751;28;19913;-75
2023/08/02 08:49:29;;;;;;;;;;;;;;;;;;2079159;28;19913;-74
2023/08/02 08:50:50;;;;;;;;;;;;;;;;;;2073406;28;19917;-74
2023/08/02 08:52:11;;;;;;;;;;;;;;;;;;2072928;28;19913;-74
2023/08/02 08:53:32;;;;;;;;;;;;;;;;;;2075119;28;19967;-74
2023/08/02 08:54:53;;;;;;;;;;;;;;;;;;2078614;28;19917;-74
2023/08/02 08:56:14;;;;;;;;;;;;;;;;;;2079114;28;19928;-75
2023/08/02 08:57:34;;;;;;;;;;;;;;;;;;2076978;28;20336;-74
2023/08/02 08:58:55;;;;;;;;;;;;;;;;;;2081593;28;19913;-74
2023/08/02 09:00:16;;;;;;;;;;;;;;;;;;2079644;28;19917;-75
2023/08/02 09:01:36;;;;;;;;;;;;;;;;;;2076701;28;19914;-74
2023/08/02 09:02:58;;;;;;;;;;;;;;;;;;2078591;28;19965;-75
2023/08/02 09:04:19;;;;;;;;;;;;;;;;;;2079688;28;19975;-75
2023/08/02 09:05:40;;;;;;;;;;;;;;;;;;2080404;28;19940;-75
2023/08/02 09:07:01;;;;;;;;;;;;;;;;;;2080097;28;19940;-75
2023/08/02 09:08:21;;;;;;;;;;;;;;;;;;2077261;28;19961;-75
2023/08/02 09:09:42;;;;;;;;;;;;;;;;;;2073010;28;19932;-75
2023/08/02 09:11:03;;;;;;;;;;;;;;;;;;2076626;28;19917;-75